This is the latest recevied weather packets stored in our database for station/object WV5G-13. If no packets are shown the sender has not sent any weather packets the latest 10 day(s).
| Time | Temp. | Humidity | Pressure | Rain* | Wind** | Luminosity | Snow |
|---|---|---|---|---|---|---|---|
| 1778088177 | 12.22° C | 57% | 1014.5 hPa | 0 mm | - | 1078 W/m² | - |
| 1778087875 | 11.11° C | 59% | 1014.6 hPa | 0 mm | - | 702 W/m² | - |
| 1778087572 | 11.11° C | 59% | 1014.7 hPa | 0 mm | - | 1203 W/m² | - |
| 1778087269 | 11.11° C | 60% | 1014.5 hPa | 0 mm | - | 508 W/m² | - |
| 1778086966 | 11.11° C | 59% | 1014.6 hPa | 0 mm | - | 585 W/m² | - |
| 1778086664 | 11.11° C | 59% | 1014.7 hPa | 0 mm | - | 937 W/m² | - |
| 1778086361 | 11.67° C | 59% | 1014.5 hPa | 0 mm | - | 566 W/m² | - |
| 1778086058 | 10.56° C | 61% | 1014.5 hPa | 0 mm | - | 488 W/m² | - |
| 1778085755 | 10.56° C | 60% | 1014.7 hPa | 0 mm | - | 485 W/m² | - |
| 1778085452 | 10° C | 63% | 1014.6 hPa | 0 mm | - | 746 W/m² | - |
| 1778085146 | 11.11° C | 60% | 1014.5 hPa | 0 mm | - | 498 W/m² | - |
| 1778084843 | 10° C | 62% | 1014.3 hPa | 0 mm | - | 487 W/m² | - |
| 1778084540 | 9.44° C | 63% | 1014.6 hPa | 0 mm | - | 392 W/m² | - |
| 1778084232 | 10.56° C | 61% | 1014.6 hPa | 0 mm | - | 456 W/m² | - |
| 1778083929 | 10° C | 62% | 1014.5 hPa | 0 mm | - | 841 W/m² | - |
| 1778083627 | 10° C | 63% | 1014.1 hPa | 0 mm | - | 605 W/m² | - |
| 1778083323 | 9.44° C | 64% | 1014.2 hPa | 0 mm | - | 518 W/m² | - |
| 1778083022 | 10° C | 64% | 1014 hPa | 0 mm | - | 530 W/m² | - |
| 1778082718 | 8.89° C | 65% | 1013.9 hPa | 0 mm | - | 367 W/m² | - |
| 1778081580 | 8.33° C | 66% | 1014.2 hPa | 0 mm | - | 348 W/m² | - |
| 1778081277 | 8.89° C | 67% | 1014 hPa | 0 mm | - | 339 W/m² | - |
| 1778080974 | 8.33° C | 67% | 1013.6 hPa | 0 mm | - | 322 W/m² | - |
| 1778080673 | 8.33° C | 67% | 1013.7 hPa | 0 mm | - | 273 W/m² | - |
| 1778080370 | 8.33° C | 67% | 1014 hPa | 0 mm | - | 279 W/m² | - |
| 1778080066 | 8.33° C | 67% | 1013.9 hPa | 0 mm | - | 290 W/m² | - |
* Rain latest hour (hover to see other rain measurements)
** Current wind speed in m/s (hover to see current wind gust speed)